• Join FlightAware (Why Join?)
  • Login
  • US Flag 
08:49AM EDT


 

Airport Tracker/Info


-or-


 

Live Flight TrackerFlight Track Log ✈ UAL4588 ✈ 03-Jul-2013 ✈ KGPT - KIAH

Flight Track Log - Related Links

Times and Time Zones

All times are in EDT time to prevent confusion due to time zone crossing. See the UAL4588 flight status page for this flight to view local times or setup timezone preferences in your user account.

Time Position Orientation Groundspeed Altitude Reporting Facility
EDT Latitude Longitude Course Direction KTS MPH feet Rate Location/Type
07:29AM 30.4114 -89.1403 235° Southwest 214 246 2,600  Level Houston Center
07:30AM 30.3717 -89.2008 233° Southwest 232 267 4,500 2,160 Climbing Houston Center
07:31AM 30.3208 -89.2631 227° Southwest 259 298 7,100 2,400 Climbing Houston Center
07:32AM 30.2842 -89.3392 241° Southwest 280 322 9,400 1,980 Climbing Houston Center
07:33AM 30.3036 -89.4283 284° West 287 330 11,100 1,620 Climbing Houston Center
07:34AM 30.3464 -89.5175 299° West 315 362 12,700 1,620 Climbing Houston Center
07:35AM 30.0731 -89.6059 235° Southwest  Level FlightAware Approximate
07:35AM 30.3169 -89.6275 253° West 327 376 14,500  Level Houston Center
07:36AM 30.2519 -89.6583 202° Southwest 320 368 15,700 1,320 Climbing Houston Center
07:37AM 30.1825 -89.7269 221° Southwest 326 375 17,300 1,560 Climbing Houston Center
07:38AM 30.1300 -89.8100 234° Southwest 323 372 18,900 1,620 Climbing Houston Center
07:39AM 30.0850 -89.9167 244° Southwest 310 357 20,600 1,380 Climbing Houston Center
07:40AM 30.0511 -90.0147 248° West 327 376 21,800 1,140 Climbing Houston Center
07:41AM 30.0256 -90.1206 254° West 340 391 23,000 1,140 Climbing Houston Center
07:42AM 30.0008 -90.2281 255° West 345 397 24,200 1,080 Climbing Houston Center
07:43AM 29.9758 -90.3356 255° West 347 399 25,300 1,020 Climbing Houston Center
07:44AM 29.9486 -90.4456 254° West 355 409 26,300 960 Climbing Houston Center
07:45AM 29.9222 -90.5572 255° West 360 414 27,300 780 Climbing Houston Center
07:46AM 29.8958 -90.6697 255° West 365 420 28,000 300 Climbing Houston Center
07:48AM 29.8664 -90.7886 254° West 382 440 28,000  Level Houston Center
07:49AM 29.8372 -90.9111 255° West 393 452 28,000  Level Houston Center
07:50AM 29.8072 -91.0378 255° West 406 467 28,000  Level Houston Center
07:51AM 29.7761 -91.1664 254° West 414 476 28,000  Level Houston Center
07:52AM 29.7450 -91.2958 255° West 419 482 28,000  Level Houston Center
07:53AM 29.7133 -91.4244 254° West 419 482 28,000  Level Houston Center
07:54AM 29.6758 -91.5778 254° West 416 479 28,000  Level Houston Center
07:55AM 29.6442 -91.7056 254° West 417 480 28,000  Level Houston Center
07:56AM 29.6181 -91.8150 255° West 417 480 28,000  Level Houston Center
07:57AM 29.5797 -91.9681 254° West 416 479 28,000  Level Houston Center
07:58AM 29.5475 -92.0947 254° West 415 478 28,000  Level Houston Center
07:59AM 29.5158 -92.2225 254° West 415 478 28,000  Level Houston Center
08:00AM 29.4850 -92.3475 254° West 410 472 28,000  Level Houston Center
08:01AM 29.4564 -92.4744 256° West 409 471 28,000  Level Houston Center
08:02AM 29.4628 -92.6081 273° West 418 481 28,000  Level Houston Center
08:03AM 29.4692 -92.7408 273° West 418 481 28,000  Level Houston Center
08:04AM 29.4761 -92.8742 273° West 413 475 28,000  Level Houston Center
08:05AM 29.4811 -93.0061 273° West 420 483 28,000 -120 Level Houston Center
08:06AM 29.4869 -93.1381 273° West 415 478 27,800 -1,200 Descending Houston Center
08:07AM 29.4931 -93.2717 273° West 418 481 25,600 -1,920 Descending Houston Center
08:08AM 29.4978 -93.4056 272° West 418 481 24,000 -1,740 Descending Houston Center
08:09AM 29.5042 -93.5597 273° West 407 468 22,100 -1,800 Descending Houston Center
08:10AM 29.5097 -93.6894 273° West 407 468 20,400 -1,800 Descending Houston Center
08:11AM 29.5139 -93.8192 272° West 406 467 18,500 -1,860 Descending Houston Center
08:12AM 29.5183 -93.9169 273° West 390 449 17,100 -2,280 Descending Houston Center
08:13AM 29.5228 -94.0436 272° West 381 438 14,500 -1,980 Descending Houston Center
08:14AM 29.5272 -94.1706 272° West 383 441 13,100 -720 Descending Houston Center
08:15AM 29.5317 -94.2975 272° West 377 434 13,000 -300 Descending Houston Center
08:16AM 29.5594 -94.4067 286° West 366 421 12,600 -1,140 Descending Houston Center
08:17AM 29.6000 -94.5000 297° West 367 422 11,000 -1,320 Descending Houston Center
08:18AM 29.6767 -94.5961 313° West 364 419 10,000 -540 Descending Houston Center
08:19AM 29.7467 -94.6667 319° Northwest 358 412 10,000 -420 Level Houston Center
08:20AM 29.8056 -94.7314 316° Northwest 276 318 9,200 -1,260 Descending Houston Center
08:21AM 29.8567 -94.8044 309° West 274 315 7,400 -1,080 Descending Houston Center
08:22AM 29.9075 -94.8753 310° West 265 305 7,000 -420 Descending Houston Center
08:23AM 29.9583 -94.9461 310° West 261 300 6,600 -660 Descending Houston Center
08:24AM 29.9889 -95.0025 302° West 231 266 5,700 -1,260 Descending Houston Center
08:25AM 29.9925 -95.0864 273° West 228 262 4,100 -1,320 Descending Houston Center
08:26AM 29.9925 -95.1542 270° West 226 260 3,000 -1,140 Descending Houston Center
08:27AM 29.9922 -95.2192 270° West 201 231 1,900 -960 Descending Houston Center
08:28AM 29.9928 -95.2697 271° West 139 160 1,100 -720 Descending Houston Center
08:29AM 29.9939 -95.3242 271° West 146 168 200 -720 Descending Houston Center
08:31AM 29.9833 -95.3333 270° West  Level FlightAware Approximate